XIO7AE LMML-LFPO
Flight info
| Callsign | XIO7AE |
|---|---|
| Flight time | N/A |
| Altitude | 43000 |
| Route | GZO M622 SOPIR DCT MABOX DCT ADEXI DCT TRP DCT RUGOX DCT MADKA DCT AJO DCT OMEDA DCT MERLU DCT PIGOS DCT BARSO DCT OKTET DCT GIPNO DCT BULOL DCT IDAVO DCT ARDOL |
| Aircraft | B77L/H-SDE1E3FGHIJ2J3J4J5J7LM1OP1P2P3RVWXYZ/HB1D1 |
Departure
| Time | 2026-04-30 13:33 |
|---|---|
| Airport | Malta International Airport (LMML) |
Arrival
| Time | N/A |
|---|---|
| Airport | Paris-Orly Airport (LFPO) |
| Time | Latitude | Longitude | Altitude | Speed | Heading |
|---|---|---|---|---|---|
| 2026-04-30 13:02 | 35.85999 | 14.47723 | 274 ft | 0 kts | 88° |
| 2026-04-30 13:31 | 35.85969 | 14.47738 | 282 ft | 10 kts | 179° |
| 2026-04-30 13:31 | 35.85870 | 14.47658 | 280 ft | 2 kts | 241° |
| 2026-04-30 13:32 | 35.85797 | 14.47694 | 276 ft | 8 kts | 139° |
| 2026-04-30 13:32 | 35.85707 | 14.47798 | 276 ft | 10 kts | 135° |
| 2026-04-30 13:33 | 35.85374 | 14.48213 | 276 ft | 93 kts | 135° |
| 2026-04-30 13:33 | 35.83945 | 14.50073 | 1249 ft | 157 kts | 127° |
| 2026-04-30 13:34 | 35.83249 | 14.51160 | 2130 ft | 169 kts | 131° |
| 2026-04-30 13:34 | 35.80502 | 14.49882 | 4474 ft | 185 kts | 247° |
| 2026-04-30 13:35 | 35.79848 | 14.48353 | 4841 ft | 220 kts | 244° |
| 2026-04-30 13:35 | 35.78128 | 14.44698 | 6123 ft | 265 kts | 242° |
| 2026-04-30 13:36 | 35.76194 | 14.40724 | 8275 ft | 271 kts | 244° |
| 2026-04-30 13:36 | 35.75612 | 14.38531 | 9246 ft | 272 kts | 268° |
| 2026-04-30 13:36 | 35.76787 | 14.34165 | 11065 ft | 291 kts | 309° |
| 2026-04-30 13:37 | 35.78430 | 14.32471 | 11378 ft | 329 kts | 329° |
| 2026-04-30 13:37 | 35.82999 | 14.30250 | 12862 ft | 366 kts | 337° |
| 2026-04-30 13:38 | 35.87842 | 14.28044 | 15251 ft | 375 kts | 336° |
| 2026-04-30 13:38 | 35.90305 | 14.26894 | 16413 ft | 380 kts | 336° |
| 2026-04-30 13:38 | 35.95304 | 14.24521 | 18563 ft | 391 kts | 335° |
| 2026-04-30 13:39 | 36.00433 | 14.22067 | 20466 ft | 399 kts | 335° |
| 2026-04-30 13:39 | 36.05482 | 14.19219 | 22259 ft | 404 kts | 324° |
| 2026-04-30 13:40 | 36.07780 | 14.17183 | 23110 ft | 409 kts | 321° |
| 2026-04-30 13:40 | 36.10080 | 14.15064 | 23929 ft | 414 kts | 321° |
| 2026-04-30 13:40 | 36.12401 | 14.12930 | 24714 ft | 417 kts | 321° |
| 2026-04-30 13:40 | 36.14748 | 14.10798 | 25503 ft | 420 kts | 321° |
| 2026-04-30 13:41 | 36.17127 | 14.08660 | 26277 ft | 424 kts | 322° |
| 2026-04-30 13:41 | 36.19532 | 14.06516 | 27004 ft | 429 kts | 322° |
| 2026-04-30 13:41 | 36.21968 | 14.04352 | 27705 ft | 433 kts | 322° |
| 2026-04-30 13:41 | 36.24429 | 14.02171 | 28414 ft | 437 kts | 322° |
| 2026-04-30 13:42 | 36.26905 | 13.99975 | 29096 ft | 440 kts | 321° |
| 2026-04-30 13:42 | 36.29409 | 13.97754 | 29724 ft | 444 kts | 321° |
| 2026-04-30 13:42 | 36.34464 | 13.93262 | 30883 ft | 447 kts | 321° |
| 2026-04-30 13:43 | 36.36986 | 13.91018 | 31626 ft | 443 kts | 321° |
| 2026-04-30 13:43 | 36.39484 | 13.88794 | 32372 ft | 440 kts | 321° |
| 2026-04-30 13:43 | 36.41960 | 13.86587 | 33078 ft | 438 kts | 321° |
| 2026-04-30 13:43 | 36.44426 | 13.84384 | 33839 ft | 434 kts | 321° |
| 2026-04-30 13:44 | 36.46867 | 13.82204 | 34445 ft | 432 kts | 321° |
| 2026-04-30 13:44 | 36.49307 | 13.80024 | 34954 ft | 431 kts | 321° |
| 2026-04-30 13:44 | 36.51744 | 13.77842 | 35476 ft | 431 kts | 320° |
| 2026-04-30 13:44 | 36.54138 | 13.75696 | 35984 ft | 429 kts | 320° |
| 2026-04-30 13:45 | 36.58966 | 13.71359 | 37011 ft | 427 kts | 320° |
| 2026-04-30 13:45 | 36.61366 | 13.69200 | 37505 ft | 426 kts | 320° |
| 2026-04-30 13:45 | 36.63769 | 13.67037 | 37979 ft | 425 kts | 320° |
| 2026-04-30 13:46 | 36.66158 | 13.64883 | 38442 ft | 424 kts | 320° |
| 2026-04-30 13:46 | 36.68543 | 13.62733 | 38855 ft | 423 kts | 320° |
| 2026-04-30 13:46 | 36.70937 | 13.60572 | 39183 ft | 424 kts | 320° |
| 2026-04-30 13:46 | 36.73332 | 13.58408 | 39448 ft | 426 kts | 320° |
| 2026-04-30 13:47 | 36.75731 | 13.56239 | 39721 ft | 427 kts | 320° |
| 2026-04-30 13:47 | 36.78133 | 13.54066 | 40012 ft | 427 kts | 320° |
| 2026-04-30 13:47 | 36.80543 | 13.51885 | 40293 ft | 428 kts | 320° |
| 2026-04-30 13:47 | 36.82955 | 13.49700 | 40570 ft | 429 kts | 320° |
| 2026-04-30 13:48 | 36.85369 | 13.47511 | 40820 ft | 430 kts | 320° |
| 2026-04-30 13:48 | 36.87802 | 13.45302 | 40947 ft | 434 kts | 320° |
| 2026-04-30 13:48 | 36.90255 | 13.43074 | 40986 ft | 436 kts | 320° |
| 2026-04-30 13:49 | 36.95155 | 13.38621 | 41006 ft | 433 kts | 320° |
| 2026-04-30 13:49 | 36.99966 | 13.34242 | 41024 ft | 429 kts | 320° |
| 2026-04-30 13:50 | 37.04775 | 13.29854 | 41017 ft | 427 kts | 320° |
| 2026-04-30 13:50 | 37.11968 | 13.23278 | 41022 ft | 427 kts | 320° |
| 2026-04-30 13:51 | 37.16769 | 13.18882 | 41021 ft | 428 kts | 320° |
| 2026-04-30 13:51 | 37.21575 | 13.14477 | 41023 ft | 429 kts | 320° |
| 2026-04-30 13:52 | 37.26401 | 13.10046 | 41025 ft | 430 kts | 320° |
| 2026-04-30 13:52 | 37.31240 | 13.05597 | 41030 ft | 431 kts | 320° |
| 2026-04-30 13:53 | 37.36059 | 13.01158 | 41029 ft | 433 kts | 320° |
| 2026-04-30 13:53 | 37.40092 | 12.97436 | 41031 ft | 433 kts | 320° |
| 2026-04-30 13:54 | 37.45780 | 12.92176 | 41032 ft | 434 kts | 320° |
| 2026-04-30 13:54 | 37.50646 | 12.87667 | 41052 ft | 434 kts | 320° |
| 2026-04-30 13:55 | 37.55519 | 12.83145 | 41038 ft | 434 kts | 320° |
| 2026-04-30 13:55 | 37.60352 | 12.78653 | 41039 ft | 434 kts | 320° |
| 2026-04-30 13:56 | 37.65215 | 12.74125 | 41043 ft | 434 kts | 320° |
| 2026-04-30 13:56 | 37.70067 | 12.69599 | 41055 ft | 434 kts | 320° |
| 2026-04-30 13:57 | 37.74101 | 12.65831 | 41059 ft | 433 kts | 320° |
| 2026-04-30 13:57 | 37.78947 | 12.61297 | 41063 ft | 433 kts | 320° |
| 2026-04-30 13:58 | 37.86205 | 12.54491 | 41075 ft | 432 kts | 320° |
| 2026-04-30 13:59 | 37.91051 | 12.49963 | 41074 ft | 433 kts | 320° |
| 2026-04-30 13:59 | 37.95950 | 12.45606 | 41072 ft | 433 kts | 321° |
| 2026-04-30 14:00 | 38.00900 | 12.41258 | 41080 ft | 433 kts | 321° |
| 2026-04-30 14:00 | 38.08318 | 12.34691 | 41063 ft | 433 kts | 321° |
| 2026-04-30 14:01 | 38.13252 | 12.30296 | 41057 ft | 433 kts | 321° |
| 2026-04-30 14:01 | 38.18151 | 12.25922 | 41058 ft | 433 kts | 321° |
| 2026-04-30 14:02 | 38.23080 | 12.21514 | 41063 ft | 433 kts | 321° |
| 2026-04-30 14:02 | 38.28004 | 12.17102 | 41070 ft | 433 kts | 321° |
| 2026-04-30 14:03 | 38.32934 | 12.12678 | 41066 ft | 433 kts | 321° |
| 2026-04-30 14:03 | 38.37863 | 12.08249 | 41059 ft | 433 kts | 321° |
| 2026-04-30 14:04 | 38.42794 | 12.03809 | 41053 ft | 433 kts | 321° |
| 2026-04-30 14:04 | 38.47684 | 11.99399 | 41058 ft | 433 kts | 321° |
| 2026-04-30 14:05 | 38.52632 | 11.94929 | 41077 ft | 433 kts | 321° |
| 2026-04-30 14:05 | 38.57523 | 11.90503 | 41063 ft | 433 kts | 321° |
| 2026-04-30 14:06 | 38.64899 | 11.83814 | 41054 ft | 433 kts | 321° |
| 2026-04-30 14:07 | 38.72274 | 11.77108 | 41058 ft | 433 kts | 321° |
| 2026-04-30 14:08 | 38.79643 | 11.70391 | 41071 ft | 433 kts | 321° |
| 2026-04-30 14:08 | 38.87009 | 11.63659 | 41072 ft | 433 kts | 321° |
| 2026-04-30 14:09 | 38.91884 | 11.59194 | 41076 ft | 433 kts | 321° |
| 2026-04-30 14:10 | 38.99229 | 11.52452 | 41073 ft | 433 kts | 321° |
| 2026-04-30 14:10 | 39.04132 | 11.47942 | 41087 ft | 432 kts | 321° |
| 2026-04-30 14:11 | 39.09025 | 11.43432 | 41082 ft | 432 kts | 321° |
| 2026-04-30 14:11 | 39.13916 | 11.38917 | 41084 ft | 432 kts | 321° |
| 2026-04-30 14:12 | 39.18799 | 11.34402 | 41084 ft | 432 kts | 321° |
| 2026-04-30 14:12 | 39.23682 | 11.29879 | 41088 ft | 432 kts | 321° |
| 2026-04-30 14:13 | 39.28526 | 11.25384 | 41097 ft | 432 kts | 321° |
| 2026-04-30 14:13 | 39.33404 | 11.20849 | 41093 ft | 432 kts | 321° |
| 2026-04-30 14:14 | 39.38274 | 11.16315 | 41089 ft | 431 kts | 321° |
| 2026-04-30 14:14 | 39.43142 | 11.11773 | 41094 ft | 431 kts | 321° |
| 2026-04-30 14:15 | 39.48017 | 11.07218 | 41095 ft | 431 kts | 321° |
| 2026-04-30 14:15 | 39.52879 | 11.02666 | 41103 ft | 432 kts | 321° |
| 2026-04-30 14:16 | 39.57738 | 10.98109 | 41098 ft | 431 kts | 321° |
| 2026-04-30 14:16 | 39.62567 | 10.93573 | 41100 ft | 431 kts | 321° |
| 2026-04-30 14:17 | 39.67420 | 10.89006 | 41100 ft | 431 kts | 320° |
| 2026-04-30 14:17 | 39.72269 | 10.84435 | 41103 ft | 430 kts | 320° |
| 2026-04-30 14:18 | 39.77109 | 10.79864 | 41114 ft | 430 kts | 320° |
| 2026-04-30 14:18 | 39.84373 | 10.72987 | 41105 ft | 430 kts | 320° |
| 2026-04-30 14:19 | 39.91633 | 10.66097 | 41106 ft | 430 kts | 320° |
| 2026-04-30 14:20 | 39.96469 | 10.61496 | 41106 ft | 430 kts | 320° |
| 2026-04-30 14:20 | 40.03687 | 10.54615 | 41108 ft | 431 kts | 320° |
| 2026-04-30 14:21 | 40.08530 | 10.49988 | 41111 ft | 431 kts | 320° |
| 2026-04-30 14:22 | 40.15786 | 10.43039 | 41113 ft | 431 kts | 320° |
| 2026-04-30 14:22 | 40.23042 | 10.36072 | 41115 ft | 431 kts | 320° |
| 2026-04-30 14:23 | 40.32713 | 10.26756 | 41118 ft | 432 kts | 320° |
| 2026-04-30 14:24 | 40.39967 | 10.19746 | 41102 ft | 432 kts | 320° |
| 2026-04-30 14:25 | 40.49600 | 10.10407 | 41126 ft | 432 kts | 320° |
| 2026-04-30 14:26 | 40.56847 | 10.03358 | 41122 ft | 432 kts | 320° |
| 2026-04-30 14:27 | 40.64093 | 9.96293 | 41124 ft | 432 kts | 320° |
| 2026-04-30 14:27 | 40.68920 | 9.91573 | 41125 ft | 432 kts | 320° |
| 2026-04-30 14:28 | 40.76133 | 9.84506 | 41129 ft | 432 kts | 320° |
| 2026-04-30 14:28 | 40.80962 | 9.79764 | 41124 ft | 433 kts | 320° |
| 2026-04-30 14:29 | 40.89806 | 9.71056 | 41131 ft | 433 kts | 319° |
| 2026-04-30 14:31 | 41.02714 | 9.58291 | 41138 ft | 435 kts | 319° |
| 2026-04-30 14:31 | 41.09987 | 9.51072 | 41126 ft | 436 kts | 319° |
| 2026-04-30 14:32 | 41.17230 | 9.43861 | 41116 ft | 436 kts | 319° |
| 2026-04-30 14:33 | 41.22084 | 9.39017 | 41138 ft | 437 kts | 319° |
| 2026-04-30 14:33 | 41.29201 | 9.31452 | 41124 ft | 435 kts | 316° |
| 2026-04-30 14:34 | 41.33815 | 9.26223 | 41127 ft | 436 kts | 316° |
| 2026-04-30 14:34 | 41.38429 | 9.21063 | 41122 ft | 436 kts | 316° |
| 2026-04-30 14:35 | 41.45414 | 9.13260 | 41137 ft | 437 kts | 317° |
| 2026-04-30 14:36 | 41.50072 | 9.08035 | 41115 ft | 437 kts | 316° |
| 2026-04-30 14:36 | 41.54727 | 9.02802 | 41138 ft | 438 kts | 316° |
| 2026-04-30 14:37 | 41.59396 | 8.97542 | 41112 ft | 439 kts | 316° |
| 2026-04-30 14:37 | 41.64032 | 8.92309 | 41119 ft | 439 kts | 316° |
| 2026-04-30 14:38 | 41.68694 | 8.87034 | 41098 ft | 440 kts | 316° |
| 2026-04-30 14:38 | 41.73369 | 8.81739 | 41106 ft | 440 kts | 316° |
| 2026-04-30 14:39 | 41.78220 | 8.76714 | 41089 ft | 442 kts | 323° |
| 2026-04-30 14:39 | 41.83605 | 8.72639 | 41093 ft | 445 kts | 327° |
| 2026-04-30 14:40 | 41.91783 | 8.66704 | 41100 ft | 446 kts | 327° |
| 2026-04-30 14:40 | 41.97193 | 8.62729 | 41105 ft | 446 kts | 327° |
| 2026-04-30 14:41 | 42.02647 | 8.58701 | 41101 ft | 447 kts | 327° |
| 2026-04-30 14:41 | 42.08098 | 8.54664 | 41092 ft | 447 kts | 327° |
| 2026-04-30 14:42 | 42.13549 | 8.50621 | 41089 ft | 448 kts | 327° |
| 2026-04-30 14:42 | 42.19019 | 8.46555 | 41085 ft | 449 kts | 327° |
| 2026-04-30 14:43 | 42.24412 | 8.42539 | 41080 ft | 449 kts | 327° |
| 2026-04-30 14:43 | 42.29963 | 8.38397 | 41079 ft | 450 kts | 327° |
| 2026-04-30 14:44 | 42.34524 | 8.34989 | 41085 ft | 450 kts | 327° |
| 2026-04-30 14:44 | 42.40012 | 8.30883 | 41098 ft | 451 kts | 327° |
| 2026-04-30 14:45 | 42.45515 | 8.26758 | 41097 ft | 452 kts | 327° |
| 2026-04-30 14:45 | 42.51013 | 8.22627 | 41104 ft | 452 kts | 327° |
| 2026-04-30 14:46 | 42.56473 | 8.18516 | 41118 ft | 452 kts | 327° |
| 2026-04-30 14:46 | 42.61967 | 8.14371 | 41123 ft | 452 kts | 327° |
| 2026-04-30 14:47 | 42.67465 | 8.10215 | 41122 ft | 452 kts | 327° |
| 2026-04-30 14:47 | 42.72969 | 8.06045 | 41122 ft | 452 kts | 327° |
| 2026-04-30 14:48 | 42.78456 | 8.01879 | 41138 ft | 452 kts | 327° |
| 2026-04-30 14:48 | 42.83954 | 7.97697 | 41141 ft | 452 kts | 327° |
| 2026-04-30 14:49 | 42.89423 | 7.93528 | 41140 ft | 452 kts | 327° |
| 2026-04-30 14:49 | 42.94931 | 7.89320 | 41148 ft | 453 kts | 327° |
| 2026-04-30 14:50 | 43.03155 | 7.83022 | 41152 ft | 454 kts | 327° |
| 2026-04-30 14:51 | 43.11426 | 7.76665 | 41153 ft | 454 kts | 327° |
| 2026-04-30 14:52 | 43.19691 | 7.70277 | 41161 ft | 455 kts | 327° |
| 2026-04-30 14:52 | 43.27971 | 7.63857 | 41152 ft | 456 kts | 327° |
| 2026-04-30 14:53 | 43.36248 | 7.57420 | 41141 ft | 456 kts | 327° |
| 2026-04-30 14:54 | 43.47257 | 7.48826 | 41153 ft | 457 kts | 327° |
| 2026-04-30 14:55 | 43.55558 | 7.42321 | 41152 ft | 457 kts | 327° |
| 2026-04-30 14:56 | 43.66449 | 7.33330 | 41157 ft | 457 kts | 324° |
| 2026-04-30 14:57 | 43.74386 | 7.25993 | 41154 ft | 458 kts | 324° |
| 2026-04-30 14:58 | 43.85020 | 7.16199 | 41168 ft | 459 kts | 324° |
| 2026-04-30 14:58 | 43.93000 | 7.08848 | 41179 ft | 459 kts | 324° |
| 2026-04-30 15:00 | 44.06236 | 6.96595 | 41197 ft | 456 kts | 324° |
| 2026-04-30 15:01 | 44.16777 | 6.86789 | 41211 ft | 456 kts | 324° |
| 2026-04-30 15:01 | 44.24686 | 6.79400 | 41206 ft | 457 kts | 324° |
| 2026-04-30 15:02 | 44.29942 | 6.74477 | 41234 ft | 459 kts | 324° |
| 2026-04-30 15:03 | 44.43259 | 6.61950 | 41216 ft | 463 kts | 324° |
| 2026-04-30 15:04 | 44.56590 | 6.49341 | 41180 ft | 461 kts | 324° |
| 2026-04-30 15:06 | 44.69795 | 6.36765 | 41171 ft | 457 kts | 324° |
| 2026-04-30 15:07 | 44.80312 | 6.26701 | 41176 ft | 459 kts | 324° |
| 2026-04-30 15:08 | 44.90864 | 6.16557 | 41171 ft | 459 kts | 324° |
| 2026-04-30 15:09 | 45.04069 | 6.03797 | 41172 ft | 461 kts | 324° |
| 2026-04-30 15:10 | 45.14650 | 5.93519 | 41153 ft | 465 kts | 324° |
| 2026-04-30 15:11 | 45.30612 | 5.77929 | 41130 ft | 466 kts | 324° |
| 2026-04-30 15:13 | 45.43951 | 5.64815 | 41118 ft | 466 kts | 324° |
| 2026-04-30 15:14 | 45.62761 | 5.46723 | 41120 ft | 468 kts | 327° |
| 2026-04-30 15:17 | 45.87570 | 5.24622 | 41105 ft | 468 kts | 327° |
| 2026-04-30 15:19 | 46.10000 | 5.05644 | 41090 ft | 470 kts | 336° |